createdAt,value
2019-05-05T00:02:56.732Z,22.63
2019-05-05T00:08:01.825Z,20.77
2019-05-05T00:13:29.364Z,23.80
2019-05-05T00:18:35.215Z,22.80
2019-05-05T00:23:40.210Z,21.27
2019-05-05T00:28:45.869Z,26.70
2019-05-05T00:33:51.110Z,22.70
2019-05-05T00:38:56.756Z,21.27
2019-05-05T00:44:01.804Z,20.03
2019-05-05T00:49:06.856Z,20.40
2019-05-05T00:54:11.872Z,24.40
2019-05-05T00:59:18.670Z,18.47
2019-05-05T01:04:30.974Z,18.13
2019-05-05T01:09:37.955Z,18.07
2019-05-05T01:14:44.753Z,17.67
2019-05-05T01:20:01.335Z,19.23
2019-05-05T01:24:57.931Z,21.47
2019-05-05T01:30:04.777Z,26.30
2019-05-05T01:35:10.510Z,21.17
2019-05-05T01:40:38.907Z,20.90
2019-05-05T01:45:45.317Z,18.23
2019-05-05T01:50:51.027Z,18.60
2019-05-05T01:55:56.765Z,17.57
2019-05-05T02:01:19.990Z,17.90
2019-05-05T02:06:25.082Z,23.80
2019-05-05T02:11:30.146Z,20.87
2019-05-05T02:16:35.723Z,18.97
2019-05-05T02:21:40.828Z,24.27
2019-05-05T02:26:45.864Z,30.40
2019-05-05T02:32:08.703Z,30.37
2019-05-05T02:37:16.092Z,27.37
2019-05-05T02:42:24.837Z,24.47
2019-05-05T02:47:54.718Z,28.87
2019-05-05T02:53:01.208Z,25.40
2019-05-05T02:58:06.641Z,28.73
2019-05-05T03:03:21.250Z,27.33
2019-05-05T03:08:27.401Z,25.13
2019-05-05T03:13:33.795Z,24.60
2019-05-05T03:18:38.932Z,25.43
2019-05-05T03:23:56.719Z,25.27
2019-05-05T03:29:04.790Z,35.10
2019-05-05T03:34:10.378Z,31.33
2019-05-05T03:39:24.353Z,35.63
2019-05-05T03:44:33.743Z,33.40
2019-05-05T03:49:39.593Z,28.17
2019-05-05T03:54:46.178Z,26.27
2019-05-05T03:59:57.502Z,25.70
2019-05-05T04:05:27.906Z,32.63
2019-05-05T04:10:33.581Z,35.07
2019-05-05T04:15:40.663Z,27.93
2019-05-05T04:20:45.751Z,28.13
2019-05-05T04:25:51.207Z,24.87
2019-05-05T04:30:59.613Z,25.90
2019-05-05T04:36:04.806Z,21.80
2019-05-05T04:41:09.940Z,23.37
2019-05-05T04:46:15.838Z,25.27
2019-05-05T04:51:25.281Z,23.20
2019-05-05T04:56:30.404Z,23.70
2019-05-05T05:01:36.070Z,30.87
2019-05-05T05:06:46.243Z,27.37
2019-05-05T05:11:51.317Z,32.70
2019-05-05T05:16:57.612Z,30.30
2019-05-05T05:22:08.006Z,28.60
2019-05-05T05:27:13.937Z,30.87
2019-05-05T05:32:19.794Z,24.97
2019-05-05T05:37:25.085Z,22.40
2019-05-05T05:42:30.454Z,25.33
2019-05-05T05:47:53.721Z,28.63
2019-05-05T05:53:04.786Z,28.80
2019-05-05T05:58:10.973Z,22.07
2019-05-05T06:03:16.832Z,22.80
2019-05-05T06:08:24.119Z,27.43
2019-05-05T06:13:28.797Z,27.13
2019-05-05T06:18:34.571Z,26.33
2019-05-05T06:23:43.547Z,27.23
2019-05-05T06:28:48.364Z,31.50
2019-05-05T06:33:55.992Z,30.03
2019-05-05T06:39:01.518Z,26.97
2019-05-05T06:44:27.789Z,24.23
2019-05-05T06:49:34.494Z,26.87
2019-05-05T06:54:40.319Z,21.23
2019-05-05T06:59:45.436Z,22.57
2019-05-05T07:04:51.010Z,22.80
2019-05-05T07:09:56.132Z,28.30
2019-05-05T07:15:04.050Z,29.33
2019-05-05T07:20:08.538Z,27.87
2019-05-05T07:25:15.256Z,30.17
2019-05-05T07:30:24.283Z,26.97
2019-05-05T07:35:55.385Z,26.43
2019-05-05T07:40:51.534Z,27.43
2019-05-05T07:45:57.190Z,24.63
2019-05-05T07:51:05.292Z,26.83
2019-05-05T07:56:10.054Z,25.37
2019-05-05T08:01:15.156Z,26.93
2019-05-05T08:06:21.120Z,21.30
2019-05-05T08:11:36.861Z,19.50
2019-05-05T08:17:01.658Z,19.40
2019-05-05T08:22:11.087Z,26.57
2019-05-05T08:27:38.250Z,28.67
2019-05-05T08:33:24.075Z,26.57
2019-05-05T08:38:29.252Z,23.27
2019-05-05T08:43:34.930Z,18.93
2019-05-05T08:48:41.414Z,16.57
2019-05-05T08:53:48.411Z,20.40
2019-05-05T08:58:55.262Z,21.37
2019-05-05T09:04:00.873Z,18.43
2019-05-05T09:09:09.888Z,22.43
2019-05-05T09:14:15.132Z,13.93
2019-05-05T09:19:24.724Z,13.87
2019-05-05T09:24:38.453Z,12.93
2019-05-05T09:29:44.488Z,13.80
2019-05-05T09:34:50.281Z,15.10
2019-05-05T09:40:05.425Z,20.10
2019-05-05T09:45:13.974Z,15.67
2019-05-05T09:50:20.189Z,16.60
2019-05-05T09:55:25.810Z,19.70
2019-05-05T10:00:33.631Z,19.27
2019-05-05T10:05:39.269Z,19.40
2019-05-05T10:10:44.705Z,19.60
2019-05-05T10:15:49.925Z,14.93
2019-05-05T10:20:57.794Z,14.43
2019-05-05T10:26:05.904Z,13.30
2019-05-05T10:31:11.166Z,16.27
2019-05-05T10:36:19.061Z,14.90
2019-05-05T10:41:39.934Z,14.87
2019-05-05T10:47:06.923Z,17.80
2019-05-05T10:52:14.209Z,17.60
2019-05-05T10:57:20.583Z,14.20
2019-05-05T11:02:27.210Z,14.97
2019-05-05T11:07:34.100Z,14.20
2019-05-05T11:12:53.528Z,16.73
2019-05-05T11:17:58.830Z,20.10
2019-05-05T11:23:05.004Z,18.53
2019-05-05T11:28:10.908Z,15.47
2019-05-05T11:33:51.059Z,13.07
2019-05-05T11:38:58.094Z,15.03
2019-05-05T11:44:04.098Z,13.07
2019-05-05T11:49:15.258Z,13.23
2019-05-05T11:54:21.329Z,14.70
2019-05-05T11:59:26.817Z,12.73
2019-05-05T12:04:33.534Z,13.23
2019-05-05T12:09:57.693Z,13.53
2019-05-05T12:15:08.208Z,12.30
2019-05-05T12:20:15.630Z,12.97
2019-05-05T12:25:39.724Z,13.43
2019-05-05T12:30:44.782Z,13.80
2019-05-05T12:35:50.032Z,14.30
2019-05-05T12:41:06.059Z,15.37
2019-05-05T12:46:21.886Z,16.30
2019-05-05T12:51:28.382Z,17.00
2019-05-05T12:56:36.558Z,15.13
2019-05-05T13:01:44.124Z,21.17
2019-05-05T13:06:49.904Z,13.33
2019-05-05T13:12:06.896Z,12.67
2019-05-05T13:17:14.055Z,14.40
2019-05-05T13:22:38.579Z,16.90
2019-05-05T13:27:44.525Z,16.10
2019-05-05T13:32:50.588Z,15.43
2019-05-05T13:37:55.873Z,12.50
2019-05-05T13:43:01.172Z,15.07
2019-05-05T13:48:14.145Z,12.60
2019-05-05T13:53:19.818Z,14.57
2019-05-05T13:58:27.118Z,12.63
2019-05-05T14:03:34.124Z,14.03
2019-05-05T14:08:39.522Z,14.37
2019-05-05T14:13:48.470Z,14.70
2019-05-05T14:18:54.702Z,15.40
2019-05-05T14:24:08.980Z,13.63
2019-05-05T14:29:34.634Z,12.93
2019-05-05T14:34:44.046Z,13.40
2019-05-05T14:39:48.880Z,13.77
2019-05-05T14:44:55.080Z,13.70
2019-05-05T14:50:01.019Z,15.03
2019-05-05T14:55:07.694Z,15.30
2019-05-05T15:00:18.026Z,15.37
2019-05-05T15:05:45.486Z,13.10
2019-05-05T15:11:05.695Z,14.00
2019-05-05T15:16:11.334Z,14.33
2019-05-05T15:21:23.649Z,14.10
2019-05-05T15:26:29.211Z,19.43
2019-05-05T15:31:35.844Z,18.70
2019-05-05T15:36:41.320Z,17.43
2019-05-05T15:41:47.353Z,15.50
2019-05-05T15:46:57.710Z,14.97
2019-05-05T15:52:04.186Z,17.23
2019-05-05T15:57:11.914Z,17.77
2019-05-05T16:02:17.713Z,20.67
2019-05-05T16:07:24.253Z,23.40
2019-05-05T16:12:34.108Z,15.93
2019-05-05T16:17:48.528Z,15.13
2019-05-05T16:23:17.432Z,16.33
2019-05-05T16:28:24.896Z,16.10
2019-05-05T16:33:30.177Z,17.17
2019-05-05T16:38:36.376Z,20.50
2019-05-05T16:43:55.174Z,15.53
2019-05-05T16:49:03.536Z,14.60
2019-05-05T16:54:16.586Z,14.87
2019-05-05T16:59:23.721Z,14.17
2019-05-05T17:04:28.998Z,18.37
2019-05-05T17:09:34.749Z,19.43
2019-05-05T17:15:10.024Z,17.03
2019-05-05T17:40:15.141Z,15.90
2019-05-05T17:45:26.727Z,15.93
2019-05-05T17:50:57.094Z,16.60
2019-05-05T17:56:03.929Z,16.93
2019-05-05T18:01:09.806Z,15.00
2019-05-05T18:06:38.794Z,15.00
2019-05-05T18:12:01.877Z,14.67
2019-05-05T18:17:07.228Z,16.63
2019-05-05T18:22:13.939Z,17.20
2019-05-05T18:27:19.332Z,18.73
2019-05-05T18:32:24.514Z,19.90
2019-05-05T18:37:29.980Z,16.97
2019-05-05T18:42:38.720Z,15.57
2019-05-05T18:47:55.832Z,15.20
2019-05-05T18:53:22.950Z,15.23
2019-05-05T18:58:30.467Z,15.03
2019-05-05T19:03:54.557Z,15.17
2019-05-05T19:09:02.573Z,17.90
2019-05-05T19:14:30.219Z,21.30
2019-05-05T19:19:37.606Z,16.73
2019-05-05T19:24:44.087Z,18.87
2019-05-05T19:29:53.503Z,20.33
2019-05-05T19:34:58.231Z,16.53
2019-05-05T19:40:14.173Z,16.77
2019-05-05T19:45:19.392Z,16.03
2019-05-05T19:55:58.258Z,18.90
2019-05-05T20:01:05.035Z,17.57
2019-05-05T20:06:14.184Z,17.63
2019-05-05T20:11:20.660Z,18.53
2019-05-05T20:16:37.578Z,22.77
2019-05-05T20:21:43.929Z,18.37
2019-05-05T20:26:49.785Z,20.57
2019-05-05T20:31:56.693Z,21.07
2019-05-05T20:37:14.328Z,19.83
2019-05-05T20:42:19.957Z,16.57
2019-05-05T20:47:25.066Z,16.80
2019-05-05T20:52:34.565Z,17.70
2019-05-05T20:57:40.194Z,18.30
2019-05-05T21:02:45.209Z,17.67
2019-05-05T21:07:50.287Z,17.83
2019-05-05T21:12:55.443Z,22.23
2019-05-05T21:18:00.569Z,24.97
2019-05-05T21:23:16.366Z,26.53
2019-05-05T21:28:24.197Z,34.53
2019-05-05T21:33:29.344Z,37.90
2019-05-05T21:38:35.618Z,26.13
2019-05-05T21:43:41.457Z,19.83
2019-05-05T21:48:47.196Z,20.60
2019-05-05T21:54:10.650Z,23.40
2019-05-05T21:59:15.754Z,23.83
2019-05-05T22:04:23.939Z,20.73
2019-05-05T22:09:29.131Z,19.87
2019-05-05T22:14:34.238Z,18.67
2019-05-05T22:19:44.532Z,18.70
2019-05-05T22:24:50.728Z,19.13
2019-05-05T22:30:09.163Z,21.83
2019-05-05T22:35:02.623Z,24.93
2019-05-05T22:40:07.927Z,29.30
2019-05-05T22:45:14.237Z,20.10
2019-05-05T22:50:19.377Z,20.27
2019-05-05T22:55:24.859Z,24.97
2019-05-05T23:00:31.451Z,18.13
2019-05-05T23:05:45.542Z,20.70
2019-05-05T23:10:50.549Z,20.17
2019-05-05T23:16:05.643Z,23.43
2019-05-05T23:21:44.195Z,18.20
2019-05-05T23:26:51.694Z,19.07
2019-05-05T23:32:09.929Z,17.80
2019-05-05T23:37:14.954Z,19.00
2019-05-05T23:42:20.041Z,22.60
2019-05-05T23:47:25.639Z,21.00
2019-05-05T23:52:30.845Z,19.63
2019-05-05T23:57:35.848Z,20.97
